Time;durP1;ratioP1;P1;durP2;ratioP2;P2;SDS_P1;SDS_P2;PMS_P1;PMS_P2;Temp;Humidity;BMP_temperature;BMP_pressure;BME280_temperature;BME280_humidity;BME280_pressure;Samples;Min_cycle;Max_cycle;Signal;HPM_P1;HPM_P2
2021/12/08 00:04:48;;;;;;;20.63;13.33;;;12.70;67.80;;;;;;10214423;29;20331;-81
2021/12/08 00:10:14;;;;;;;20.80;14.93;;;12.60;67.80;;;;;;10236252;29;20256;-82
2021/12/08 00:15:16;;;;;;;22.87;14.37;;;12.50;67.10;;;;;;10231352;29;20327;-82
2021/12/08 00:20:20;;;;;;;18.93;11.87;;;12.40;67.90;;;;;;10215404;29;20645;-81
2021/12/08 00:25:23;;;;;;;19.70;12.83;;;12.30;68.60;;;;;;10223564;29;20303;-81
2021/12/08 00:30:28;;;;;;;19.37;12.10;;;12.60;67.70;;;;;;10222514;29;20279;-82
2021/12/08 00:35:31;;;;;;;19.93;12.80;;;12.80;67.10;;;;;;10207215;29;20211;-82
2021/12/08 00:40:34;;;;;;;17.23;11.77;;;12.60;67.40;;;;;;10247179;29;20319;-81
2021/12/08 00:45:36;;;;;;;16.47;11.97;;;12.40;68.00;;;;;;10208795;29;20215;-82
2021/12/08 00:50:40;;;;;;;20.90;12.90;;;12.60;67.40;;;;;;10245284;29;20267;-81
2021/12/08 00:55:42;;;;;;;27.07;17.47;;;12.30;68.20;;;;;;10230548;29;20236;-81
2021/12/08 01:00:50;;;;;;;25.27;15.80;;;12.40;62.10;;;;;;10244038;29;20202;-83
2021/12/08 01:05:55;;;;;;;30.27;17.97;;;12.30;61.60;;;;;;10274884;29;20268;-82
2021/12/08 01:11:05;;;;;;;19.20;12.63;;;12.10;64.60;;;;;;10294195;29;20239;-82
2021/12/08 01:16:08;;;;;;;19.10;12.03;;;11.50;68.90;;;;;;10202031;29;20567;-83
2021/12/08 01:21:12;;;;;;;25.40;16.33;;;12.30;68.00;;;;;;10208632;29;20249;-81
2021/12/08 01:26:15;;;;;;;20.27;12.70;;;11.60;67.40;;;;;;10227595;29;20306;-83
2021/12/08 01:31:18;;;;;;;22.67;14.43;;;12.30;68.40;;;;;;10240757;28;20866;-82
2021/12/08 01:36:21;;;;;;;21.53;12.33;;;12.20;67.70;;;;;;10218048;29;20319;-82
2021/12/08 01:41:24;;;;;;;21.30;11.30;;;11.90;69.00;;;;;;10249869;29;20270;-82
2021/12/08 01:46:28;;;;;;;29.57;19.20;;;12.40;67.90;;;;;;10211972;29;20273;-82
2021/12/08 01:51:31;;;;;;;20.40;13.53;;;12.00;65.20;;;;;;10243128;29;20276;-82
2021/12/08 01:56:35;;;;;;;29.90;17.60;;;12.10;67.90;;;;;;10210455;29;20232;-82
2021/12/08 02:01:40;;;;;;;24.13;14.50;;;12.40;59.10;;;;;;10222692;29;20267;-82
2021/12/08 02:06:45;;;;;;;17.17;11.47;;;12.20;67.40;;;;;;10200882;29;20307;-81
2021/12/08 02:11:52;;;;;;;22.37;13.63;;;12.00;69.00;;;;;;10217081;29;20341;-82
2021/12/08 02:16:55;;;;;;;19.93;12.37;;;12.20;67.70;;;;;;10252193;29;20231;-82
2021/12/08 02:21:58;;;;;;;20.07;11.80;;;12.40;68.30;;;;;;10234651;29;20285;-81
2021/12/08 02:27:01;;;;;;;16.33;11.80;;;12.10;68.70;;;;;;10216616;29;20254;-81
2021/12/08 02:32:25;;;;;;;19.07;12.40;;;12.30;68.60;;;;;;10215406;29;20268;-81
2021/12/08 02:46:43;;;;;;;17.40;11.30;;;12.40;67.80;;;;;;10221159;29;20301;-82
2021/12/08 02:48:19;;;;;;;20.73;13.57;;;12.70;67.80;;;;;;10127090;29;20245;-82
2021/12/08 02:53:22;;;;;;;18.90;12.23;;;12.70;67.20;;;;;;10090395;29;20270;-82
2021/12/08 02:58:25;;;;;;;17.23;10.93;;;12.60;67.30;;;;;;10076816;29;20613;-82
2021/12/08 03:03:28;;;;;;;21.80;13.47;;;12.70;67.40;;;;;;10075824;29;20302;-82
2021/12/08 03:08:31;;;;;;;21.30;12.60;;;12.60;67.30;;;;;;10088845;29;20313;-82
2021/12/08 03:13:41;;;;;;;16.03;11.50;;;12.70;67.10;;;;;;10103216;29;20625;-82
2021/12/08 03:18:43;;;;;;;17.50;11.73;;;12.80;66.90;;;;;;10088828;29;20270;-82
2021/12/08 03:29:19;;;;;;;16.27;10.73;;;12.70;66.80;;;;;;10226744;29;20350;-82
2021/12/08 03:34:25;;;;;;;20.43;12.10;;;12.60;67.10;;;;;;10212989;29;20717;-82
2021/12/08 03:39:28;;;;;;;21.90;13.10;;;12.60;67.10;;;;;;10209999;29;20295;-82
2021/12/08 03:44:31;;;;;;;26.13;17.20;;;12.70;67.30;;;;;;10207008;29;20236;-82
2021/12/08 03:49:34;;;;;;;18.70;12.30;;;12.50;66.00;;;;;;10209704;29;20279;-82
2021/12/08 03:54:37;;;;;;;19.00;12.17;;;12.60;67.40;;;;;;10199853;29;20233;-82
2021/12/08 03:59:40;;;;;;;16.87;11.93;;;12.60;67.30;;;;;;10240868;29;20299;-82
2021/12/08 04:04:46;;;;;;;19.03;11.87;;;12.40;67.60;;;;;;10232577;29;20241;-82
2021/12/08 04:09:50;;;;;;;18.63;11.97;;;12.60;67.40;;;;;;10209847;29;20798;-82
2021/12/08 04:14:58;;;;;;;19.30;12.47;;;12.80;66.90;;;;;;10192051;29;20244;-82
2021/12/08 04:20:11;;;;;;;22.60;12.63;;;12.60;67.30;;;;;;10208829;29;20438;-83
2021/12/08 04:25:23;;;;;;;16.90;11.93;;;12.70;67.00;;;;;;10210684;29;20304;-82
2021/12/08 04:30:34;;;;;;;19.00;12.67;;;12.50;67.10;;;;;;10213072;29;20330;-82
2021/12/08 04:35:41;;;;;;;17.33;10.83;;;12.60;67.20;;;;;;10237919;29;20239;-82
2021/12/08 04:41:03;;;;;;;19.80;13.37;;;12.50;67.20;;;;;;10229109;29;20753;-81
2021/12/08 04:46:44;;;;;;;17.10;10.97;;;12.50;67.10;;;;;;10215701;29;20266;-82
2021/12/08 04:51:57;;;;;;;18.03;11.80;;;12.60;66.80;;;;;;10236731;29;20745;-82
2021/12/08 05:03:00;;;;;;;15.80;10.83;;;12.50;66.70;;;;;;10241704;28;20271;-82
2021/12/08 05:08:01;;;;;;;18.67;12.90;;;12.40;67.20;;;;;;10221500;29;20651;-82
2021/12/08 05:13:06;;;;;;;14.07;10.27;;;12.30;66.30;;;;;;10211926;29;20637;-82
2021/12/08 05:18:11;;;;;;;17.63;11.50;;;12.60;66.30;;;;;;10237149;29;20253;-82
2021/12/08 05:23:36;;;;;;;15.67;11.27;;;12.70;66.20;;;;;;10220442;29;20273;-81
2021/12/08 05:28:41;;;;;;;13.83;9.97;;;12.90;65.50;;;;;;10228305;29;20269;-82
2021/12/08 05:33:47;;;;;;;16.07;10.47;;;12.50;66.30;;;;;;10227845;29;20726;-82
2021/12/08 05:38:50;;;;;;;15.20;9.80;;;12.60;65.80;;;;;;10244848;29;20728;-81
2021/12/08 05:43:53;;;;;;;16.83;11.00;;;12.50;65.70;;;;;;10212620;29;20212;-83
2021/12/08 05:48:56;;;;;;;14.80;10.73;;;12.40;66.10;;;;;;10245941;29;20669;-83
2021/12/08 05:54:06;;;;;;;18.67;12.37;;;12.60;65.90;;;;;;10226782;29;21015;-82
2021/12/08 05:59:10;;;;;;;16.10;11.17;;;12.30;64.70;;;;;;10230649;29;20251;-83
2021/12/08 06:04:14;;;;;;;13.67;9.40;;;12.60;65.50;;;;;;10213400;29;20246;-83
2021/12/08 06:09:18;;;;;;;16.23;10.43;;;12.60;65.60;;;;;;10215658;29;20273;-82
2021/12/08 06:14:25;;;;;;;15.10;10.43;;;12.60;65.60;;;;;;10196058;28;20242;-83
2021/12/08 06:19:28;;;;;;;16.60;10.63;;;12.50;65.60;;;;;;10220460;29;20237;-83
2021/12/08 06:24:31;;;;;;;14.93;10.00;;;12.50;65.60;;;;;;10247862;29;20765;-83
2021/12/08 06:29:34;;;;;;;16.50;10.60;;;12.60;65.50;;;;;;10216368;29;20270;-83
2021/12/08 06:34:39;;;;;;;13.83;9.97;;;12.40;65.80;;;;;;10239647;29;20271;-83
2021/12/08 06:40:01;;;;;;;15.70;9.97;;;12.60;65.60;;;;;;10216798;29;20756;-83
2021/12/08 06:45:08;;;;;;;14.93;11.37;;;12.20;66.40;;;;;;10245868;29;20343;-82
2021/12/08 06:50:20;;;;;;;13.93;9.70;;;12.40;66.00;;;;;;10248805;28;20354;-84
2021/12/08 06:55:44;;;;;;;15.20;9.70;;;12.30;66.40;;;;;;10243442;28;20243;-83
2021/12/08 07:11:57;;;;;;;14.57;9.00;;;12.70;65.80;;;;;;10070690;29;20260;-83
2021/12/08 07:17:03;;;;;;;14.33;9.40;;;12.40;65.00;;;;;;10090704;29;20249;-84
2021/12/08 07:22:07;;;;;;;14.70;9.70;;;12.60;65.80;;;;;;10086202;29;20238;-82
2021/12/08 07:27:23;;;;;;;13.63;10.10;;;12.70;65.50;;;;;;10082251;29;20254;-83
2021/12/08 07:32:34;;;;;;;13.73;10.17;;;12.60;65.50;;;;;;10085569;29;20345;-82
2021/12/08 07:37:37;;;;;;;14.37;9.70;;;12.50;65.30;;;;;;10082283;29;20891;-82
2021/12/08 07:42:47;;;;;;;12.63;9.23;;;12.50;65.50;;;;;;10069514;29;20255;-82
2021/12/08 07:47:52;;;;;;;14.23;9.20;;;12.60;65.50;;;;;;10215886;29;20316;-83
2021/12/08 07:52:56;;;;;;;13.37;9.80;;;12.50;65.70;;;;;;10226947;29;20719;-82
2021/12/08 07:57:59;;;;;;;13.50;9.00;;;12.30;64.90;;;;;;10207359;29;20315;-83
2021/12/08 08:03:04;;;;;;;13.13;9.03;;;12.50;65.60;;;;;;10241716;28;20326;-83
2021/12/08 08:08:10;;;;;;;15.20;10.07;;;12.60;65.30;;;;;;10228455;29;20241;-83
2021/12/08 08:13:21;;;;;;;14.80;8.97;;;12.20;65.60;;;;;;10212871;29;20288;-83
2021/12/08 08:18:27;;;;;;;14.33;9.43;;;12.30;66.00;;;;;;10198149;28;20345;-83
2021/12/08 08:23:31;;;;;;;14.53;9.67;;;12.50;65.40;;;;;;10221804;29;20269;-82
2021/12/08 08:28:36;;;;;;;14.13;9.63;;;12.50;65.10;;;;;;10210638;29;20291;-82
2021/12/08 08:33:41;;;;;;;15.47;10.13;;;12.60;65.10;;;;;;10201471;29;20258;-83
2021/12/08 08:38:50;;;;;;;12.00;8.97;;;12.50;63.70;;;;;;10214002;28;20966;-82
2021/12/08 08:43:57;;;;;;;13.50;9.77;;;12.50;65.30;;;;;;10225992;29;20269;-83
2021/12/08 08:49:07;;;;;;;15.00;9.53;;;12.60;65.10;;;;;;10241128;28;20760;-83
2021/12/08 08:54:14;;;;;;;14.57;9.83;;;12.60;65.20;;;;;;10216406;29;21069;-82
2021/12/08 08:59:25;;;;;;;12.13;8.87;;;12.40;65.60;;;;;;10210638;29;20239;-83
2021/12/08 09:04:32;;;;;;;13.73;10.00;;;12.30;66.50;;;;;;10218034;28;20670;-83
2021/12/08 09:09:38;;;;;;;19.33;11.30;;;12.60;65.30;;;;;;10235505;28;20256;-82
2021/12/08 09:15:29;;;;;;;15.60;10.40;;;12.60;65.10;;;;;;10229937;29;20323;-83
2021/12/08 09:20:55;;;;;;;14.57;9.67;;;12.60;65.20;;;;;;10012402;29;20240;-83
2021/12/08 09:26:05;;;;;;;18.03;12.80;;;12.70;64.80;;;;;;10041283;29;20289;-83
2021/12/08 09:31:18;;;;;;;15.20;9.97;;;12.60;64.30;;;;;;10005401;29;20326;-83
2021/12/08 09:36:30;;;;;;;14.63;10.80;;;12.70;65.00;;;;;;10010140;29;20301;-83
2021/12/08 09:41:46;;;;;;;13.33;9.97;;;12.50;65.10;;;;;;10046142;29;20308;-83
2021/12/08 09:46:52;;;;;;;17.10;10.70;;;12.50;65.20;;;;;;10070183;29;20315;-83
2021/12/08 09:51:58;;;;;;;15.37;10.83;;;12.10;65.80;;;;;;10026725;29;20722;-83
2021/12/08 09:57:06;;;;;;;15.17;10.47;;;12.40;65.70;;;;;;10183080;29;20242;-83
2021/12/08 10:02:10;;;;;;;14.13;9.90;;;12.60;63.00;;;;;;10239852;28;20323;-83
2021/12/08 10:07:13;;;;;;;15.07;10.33;;;12.60;64.50;;;;;;10231176;28;20242;-82
2021/12/08 10:12:16;;;;;;;17.53;11.63;;;12.60;65.00;;;;;;10220221;29;20289;-83
2021/12/08 10:17:19;;;;;;;15.00;10.50;;;12.50;65.50;;;;;;10218459;29;20644;-83
2021/12/08 10:22:22;;;;;;;15.37;10.40;;;12.60;65.00;;;;;;10215706;29;20318;-83
2021/12/08 10:27:25;;;;;;;16.50;11.80;;;12.70;64.50;;;;;;10226256;29;20267;-83
2021/12/08 10:32:36;;;;;;;17.10;11.00;;;12.60;64.80;;;;;;10223982;29;20310;-83
2021/12/08 10:37:39;;;;;;;17.87;10.80;;;12.50;65.20;;;;;;10235328;28;20195;-83
2021/12/08 10:42:41;;;;;;;18.33;11.80;;;12.40;64.00;;;;;;10287436;28;20199;-82
2021/12/08 10:47:50;;;;;;;18.87;12.20;;;11.70;66.50;;;;;;10273102;28;20210;-83
2021/12/08 10:58:26;;;;;;;16.87;12.00;;;12.60;64.90;;;;;;10223226;28;20267;-84
2021/12/08 11:03:31;;;;;;;21.73;15.33;;;12.60;60.10;;;;;;10229520;28;20327;-82
2021/12/08 11:08:38;;;;;;;22.07;15.37;;;11.90;64.50;;;;;;10227901;28;20269;-82
2021/12/08 11:13:44;;;;;;;16.40;11.27;;;11.70;66.30;;;;;;10219120;29;20266;-83
2021/12/08 11:18:49;;;;;;;19.30;12.20;;;12.00;65.70;;;;;;10204992;29;20250;-82
2021/12/08 11:23:54;;;;;;;28.30;19.57;;;11.90;67.10;;;;;;10214700;29;20239;-83
2021/12/08 11:29:11;;;;;;;33.07;20.13;;;11.70;58.60;;;;;;10228378;29;20271;-83
2021/12/08 11:34:32;;;;;;;25.33;15.77;;;11.60;61.80;;;;;;10247558;29;20281;-83
2021/12/08 11:39:41;;;;;;;28.17;16.93;;;12.10;62.20;;;;;;10225251;29;20259;-82
2021/12/08 11:44:47;;;;;;;20.57;14.13;;;12.30;61.40;;;;;;10207455;29;20696;-83
2021/12/08 11:49:53;;;;;;;26.60;16.83;;;12.40;61.60;;;;;;10243252;29;20274;-83
2021/12/08 11:55:00;;;;;;;22.30;14.20;;;11.80;61.60;;;;;;10221454;29;20255;-82
2021/12/08 12:00:10;;;;;;;23.83;14.40;;;12.10;62.70;;;;;;10242348;28;20270;-83
2021/12/08 12:05:19;;;;;;;22.50;14.50;;;12.20;59.90;;;;;;10238739;28;20321;-83
2021/12/08 12:10:25;;;;;;;20.27;14.17;;;12.20;62.20;;;;;;10224338;28;20262;-83
2021/12/08 12:15:33;;;;;;;24.27;15.37;;;12.10;62.90;;;;;;10227963;28;20238;-83
2021/12/08 12:20:43;;;;;;;21.40;13.37;;;12.20;62.50;;;;;;10242971;28;20231;-83
2021/12/08 12:26:04;;;;;;;21.87;14.10;;;12.20;62.80;;;;;;10240738;29;20280;-83
2021/12/08 12:31:25;;;;;;;23.17;14.33;;;12.40;62.50;;;;;;10225560;29;20326;-82
2021/12/08 12:36:32;;;;;;;20.77;14.00;;;12.40;62.40;;;;;;10233364;29;20247;-81
2021/12/08 12:41:35;;;;;;;21.57;14.93;;;12.20;63.30;;;;;;10224860;28;20756;-82
2021/12/08 12:46:58;;;;;;;19.63;14.30;;;12.20;62.20;;;;;;10240490;29;20314;-82
2021/12/08 12:52:06;;;;;;;20.33;14.10;;;12.50;62.80;;;;;;10235969;28;20278;-82
2021/12/08 12:57:09;;;;;;;22.30;14.40;;;12.40;63.00;;;;;;10220774;29;20264;-82
2021/12/08 13:02:23;;;;;;;24.30;15.80;;;12.50;62.60;;;;;;10230367;28;20275;-82
2021/12/08 13:07:28;;;;;;;21.57;14.47;;;12.20;62.90;;;;;;10241216;28;20247;-82
2021/12/08 13:12:34;;;;;;;24.67;13.87;;;12.30;63.20;;;;;;10210977;29;20290;-82
2021/12/08 13:17:37;;;;;;;22.77;14.57;;;11.70;64.00;;;;;;10222687;28;20267;-83
2021/12/08 13:22:40;;;;;;;21.47;14.67;;;12.20;63.60;;;;;;10212585;29;20869;-82
2021/12/08 13:27:51;;;;;;;20.33;13.93;;;12.20;63.80;;;;;;10228698;29;20783;-82
2021/12/08 13:33:07;;;;;;;51.83;27.20;;;11.90;63.80;;;;;;10249439;28;20299;-84
2021/12/08 13:38:09;;;;;;;67.73;29.77;;;9.60;55.30;;;;;;10242767;28;20285;-82
2021/12/08 13:43:41;;;;;;;40.57;21.80;;;6.50;62.30;;;;;;10238965;28;20238;-82
2021/12/08 13:49:17;;;;;;;40.23;19.87;;;7.40;81.60;;;;;;10221549;29;20740;-82
2021/12/08 13:54:31;;;;;;;32.57;20.50;;;9.20;66.20;;;;;;9540414;29;10000550;-82
2021/12/08 14:00:22;;;;;;;38.83;20.97;;;9.90;70.50;;;;;;10209471;28;20341;-83
2021/12/08 14:05:28;;;;;;;31.33;18.97;;;10.30;70.20;;;;;;10222647;28;20293;-83
2021/12/08 14:10:34;;;;;;;29.10;17.30;;;11.50;67.30;;;;;;10242038;28;20334;-83
2021/12/08 14:15:40;;;;;;;28.17;16.83;;;11.70;67.40;;;;;;10223215;29;20844;-82
2021/12/08 14:20:47;;;;;;;25.70;16.30;;;11.90;67.50;;;;;;10230399;29;20796;-82
2021/12/08 14:25:53;;;;;;;37.03;20.50;;;12.40;65.60;;;;;;10208142;29;20339;-82
2021/12/08 14:30:57;;;;;;;27.03;17.37;;;12.40;65.50;;;;;;10222726;29;20355;-82
2021/12/08 14:36:04;;;;;;;25.70;16.53;;;12.20;61.80;;;;;;10215446;29;20271;-82
2021/12/08 14:41:23;;;;;;;27.73;17.40;;;11.90;68.60;;;;;;10220651;29;20299;-82
2021/12/08 14:46:25;;;;;;;30.33;16.90;;;12.40;67.30;;;;;;10193265;29;20243;-82
2021/12/08 14:51:30;;;;;;;29.20;17.00;;;12.20;67.60;;;;;;10204455;29;20809;-82
2021/12/08 14:56:34;;;;;;;30.03;17.23;;;12.10;63.90;;;;;;10211565;29;20777;-82
2021/12/08 15:01:38;;;;;;;29.03;17.33;;;12.30;69.20;;;;;;10224027;29;20311;-82
2021/12/08 15:06:55;;;;;;;24.80;16.07;;;12.60;68.60;;;;;;10223110;28;20268;-83
2021/12/08 15:11:59;;;;;;;27.90;16.90;;;12.70;68.50;;;;;;10229843;29;20291;-82
2021/12/08 15:17:02;;;;;;;55.80;29.60;;;12.80;59.60;;;;;;10214923;29;20242;-82
2021/12/08 15:22:10;;;;;;;30.60;16.80;;;11.60;54.10;;;;;;10226858;28;20613;-82
2021/12/08 15:27:14;;;;;;;26.07;15.77;;;12.10;70.10;;;;;;10224036;29;20236;-82
2021/12/08 15:32:17;;;;;;;24.87;14.20;;;12.50;70.40;;;;;;10216127;29;20267;-82
2021/12/08 15:37:20;;;;;;;24.80;15.63;;;12.90;69.40;;;;;;10243266;29;20232;-83
2021/12/08 15:42:24;;;;;;;20.03;13.80;;;12.80;69.50;;;;;;10228093;29;20765;-82
2021/12/08 15:47:27;;;;;;;22.93;15.67;;;12.90;69.20;;;;;;10238035;28;20684;-82
2021/12/08 15:52:35;;;;;;;23.37;15.70;;;13.10;67.70;;;;;;10219476;29;20260;-82
2021/12/08 15:57:38;;;;;;;29.43;17.97;;;12.60;70.00;;;;;;10212337;29;20236;-82
2021/12/08 16:02:40;;;;;;;27.40;16.57;;;12.40;68.90;;;;;;10228768;29;20288;-83
2021/12/08 16:07:48;;;;;;;33.67;19.20;;;12.60;70.30;;;;;;10228803;28;20240;-82
2021/12/08 16:12:55;;;;;;;29.57;17.90;;;12.40;70.50;;;;;;10236187;28;20321;-83
2021/12/08 16:18:01;;;;;;;34.23;19.57;;;12.50;70.50;;;;;;10236446;28;20261;-84
2021/12/08 16:23:04;;;;;;;26.53;16.40;;;12.30;70.50;;;;;;10223033;29;20235;-84
2021/12/08 16:28:10;;;;;;;22.93;14.77;;;12.00;70.40;;;;;;10218202;29;20258;-84
2021/12/08 16:33:13;;;;;;;25.47;16.33;;;11.50;72.20;;;;;;10239119;29;20264;-83
2021/12/08 16:38:15;;;;;;;30.53;19.43;;;11.90;66.90;;;;;;10208491;29;20231;-83
2021/12/08 16:43:18;;;;;;;23.40;15.17;;;11.90;71.60;;;;;;10223759;29;20232;-83
2021/12/08 16:48:23;;;;;;;24.77;16.63;;;11.80;71.30;;;;;;10208766;29;20244;-84
2021/12/08 16:53:26;;;;;;;28.83;18.00;;;11.80;72.40;;;;;;10238863;28;20285;-83
2021/12/08 16:58:29;;;;;;;23.37;16.30;;;12.30;71.10;;;;;;10234565;28;20263;-83
2021/12/08 17:03:32;;;;;;;23.20;16.20;;;12.50;69.70;;;;;;10207482;28;20232;-83
2021/12/08 17:08:35;;;;;;;24.83;15.37;;;12.50;69.30;;;;;;10237607;28;20318;-83
2021/12/08 17:13:38;;;;;;;28.00;15.40;;;12.70;69.40;;;;;;10241167;29;20260;-88
2021/12/08 17:18:43;;;;;;;29.03;17.20;;;12.70;68.70;;;;;;10199286;29;20301;-88
2021/12/08 17:23:47;;;;;;;28.23;17.60;;;12.50;67.80;;;;;;10221482;28;20233;-88
2021/12/08 17:28:49;;;;;;;32.37;16.97;;;12.90;68.10;;;;;;10236532;29;20673;-88
2021/12/08 17:33:52;;;;;;;31.37;17.70;;;13.00;67.50;;;;;;10224790;29;20292;-88
2021/12/08 17:38:57;;;;;;;26.07;16.43;;;12.80;66.20;;;;;;10234853;29;20245;-88
2021/12/08 17:44:00;;;;;;;27.60;15.83;;;12.80;68.00;;;;;;10243424;29;20264;-87
2021/12/08 17:49:04;;;;;;;25.77;16.17;;;12.00;69.80;;;;;;10229636;29;20269;-87
2021/12/08 17:54:07;;;;;;;31.33;15.67;;;12.50;68.80;;;;;;10220195;28;20264;-88
2021/12/08 17:59:10;;;;;;;31.37;16.47;;;12.40;68.10;;;;;;10215403;29;20613;-88
2021/12/08 18:04:13;;;;;;;29.83;18.17;;;12.40;68.60;;;;;;10250421;28;20240;-87
2021/12/08 18:09:19;;;;;;;28.97;15.87;;;12.20;66.90;;;;;;10225272;28;20284;-88
2021/12/08 18:14:21;;;;;;;29.60;16.07;;;11.70;70.50;;;;;;10270924;28;20259;-87
2021/12/08 18:19:24;;;;;;;27.73;16.63;;;12.10;68.80;;;;;;10203994;29;20262;-87
2021/12/08 18:24:27;;;;;;;25.13;15.40;;;12.10;69.40;;;;;;10223390;29;20256;-88
2021/12/08 18:29:29;;;;;;;31.53;17.83;;;11.50;69.10;;;;;;9556753;29;10000731;-87
2021/12/08 18:34:57;;;;;;;25.10;14.53;;;12.20;66.60;;;;;;10245433;29;20581;-88
2021/12/08 18:39:59;;;;;;;23.30;15.57;;;12.40;68.20;;;;;;10213768;29;20727;-88
2021/12/08 18:45:04;;;;;;;35.43;20.23;;;12.50;67.50;;;;;;10202419;29;20300;-88
2021/12/08 18:50:07;;;;;;;27.53;15.60;;;12.00;65.00;;;;;;10221966;29;20616;-88
2021/12/08 18:55:12;;;;;;;25.60;16.00;;;11.90;69.10;;;;;;10241302;29;20663;-87
2021/12/08 19:00:18;;;;;;;24.07;14.20;;;12.20;68.20;;;;;;10223464;29;20972;-88
2021/12/08 19:05:23;;;;;;;25.87;15.90;;;11.70;69.60;;;;;;10204694;29;20784;-88
2021/12/08 19:10:27;;;;;;;27.90;15.50;;;11.70;69.40;;;;;;10191970;29;20767;-87
2021/12/08 19:15:30;;;;;;;31.83;18.23;;;11.80;69.20;;;;;;10187801;29;20376;-88
2021/12/08 19:20:33;;;;;;;27.40;17.40;;;11.50;68.00;;;;;;10218807;28;20240;-87
2021/12/08 19:25:38;;;;;;;42.90;22.70;;;11.90;67.80;;;;;;10213609;29;20338;-88
2021/12/08 19:30:42;;;;;;;33.67;17.80;;;9.00;70.40;;;;;;10214595;29;20325;-88
2021/12/08 19:35:47;;;;;;;27.93;16.27;;;10.80;74.10;;;;;;10219998;28;20661;-88
2021/12/08 19:40:51;;;;;;;22.63;14.33;;;11.50;71.80;;;;;;10207112;29;20371;-88
2021/12/08 19:45:55;;;;;;;27.10;14.67;;;11.70;70.60;;;;;;10233218;29;20315;-87
2021/12/08 19:51:00;;;;;;;26.87;15.97;;;12.50;68.60;;;;;;10222847;29;20295;-88
2021/12/08 19:56:03;;;;;;;27.93;13.83;;;11.40;69.70;;;;;;10239829;29;20337;-88
2021/12/08 20:01:06;;;;;;;29.50;16.73;;;11.80;70.30;;;;;;10233318;29;20247;-88
2021/12/08 20:06:12;;;;;;;27.27;14.43;;;12.30;65.30;;;;;;10212577;29;20294;-87
2021/12/08 20:11:16;;;;;;;28.87;15.63;;;11.70;70.00;;;;;;10208266;29;20263;-88
2021/12/08 20:16:20;;;;;;;25.17;14.87;;;11.80;69.20;;;;;;10216914;29;20329;-87
2021/12/08 20:21:23;;;;;;;39.80;22.23;;;11.60;69.90;;;;;;10219576;29;20749;-86
2021/12/08 20:26:25;;;;;;;28.20;16.67;;;10.10;74.30;;;;;;10201389;29;20246;-86
2021/12/08 20:31:28;;;;;;;29.33;15.50;;;11.30;85.70;;;;;;10207817;29;20241;-86
2021/12/08 20:36:31;;;;;;;20.57;13.30;;;11.90;79.40;;;;;;10285222;28;20249;-85
2021/12/08 20:41:34;;;;;;;31.67;17.13;;;12.30;78.00;;;;;;10257326;28;20193;-86
2021/12/08 20:46:40;;;;;;;25.97;15.43;;;13.30;83.30;;;;;;10287302;28;20225;-86
2021/12/08 20:51:44;;;;;;;32.47;18.20;;;13.20;84.70;;;;;;10247099;28;20638;-87
2021/12/08 20:56:49;;;;;;;28.93;16.70;;;12.90;81.60;;;;;;10252938;28;20305;-87
2021/12/08 21:01:56;;;;;;;27.00;16.23;;;12.70;79.00;;;;;;10247733;28;20722;-86
2021/12/08 21:06:58;;;;;;;28.70;14.87;;;12.60;79.40;;;;;;10242483;28;20249;-87
2021/12/08 21:12:02;;;;;;;25.80;15.10;;;12.50;79.00;;;;;;10239732;28;20711;-87
2021/12/08 21:17:04;;;;;;;32.50;16.73;;;12.50;78.40;;;;;;10252282;28;20267;-87
2021/12/08 21:22:07;;;;;;;23.90;14.63;;;12.30;76.80;;;;;;10220905;29;20238;-87
2021/12/08 21:27:10;;;;;;;21.77;14.30;;;12.10;78.40;;;;;;10236057;28;20667;-87
2021/12/08 21:32:12;;;;;;;25.13;14.97;;;12.10;77.10;;;;;;10217498;29;20288;-87
2021/12/08 21:37:19;;;;;;;42.13;18.97;;;12.40;76.30;;;;;;10224372;28;20679;-87
2021/12/08 21:42:22;;;;;;;25.37;13.53;;;12.10;75.40;;;;;;10255356;28;20299;-87
2021/12/08 21:47:29;;;;;;;24.50;14.90;;;12.20;76.20;;;;;;10247521;28;20743;-88
2021/12/08 21:52:32;;;;;;;47.90;24.80;;;12.20;72.50;;;;;;10254306;28;20277;-89
2021/12/08 21:57:35;;;;;;;33.90;17.30;;;2.40;88.50;;;;;;10251985;29;20720;-88
2021/12/08 22:02:42;;;;;;;32.77;16.07;;;6.80;99.90;;;;;;10224755;29;20309;-88
2021/12/08 22:07:45;;;;;;;23.83;14.50;;;9.80;99.90;;;;;;10218643;28;20258;-88
2021/12/08 22:12:50;;;;;;;33.10;17.60;;;11.00;97.90;;;;;;10262847;28;20317;-88
2021/12/08 22:17:53;;;;;;;27.07;15.33;;;10.50;93.90;;;;;;10221894;29;20328;-88
2021/12/08 22:22:56;;;;;;;35.57;18.43;;;11.40;92.80;;;;;;10244844;28;20307;-88
2021/12/08 22:27:59;;;;;;;23.03;14.10;;;11.70;76.60;;;;;;10259796;28;20243;-88
2021/12/08 22:33:03;;;;;;;25.73;14.97;;;11.60;90.00;;;;;;10244354;29;20266;-88
2021/12/08 22:38:06;;;;;;;30.87;19.40;;;11.90;88.30;;;;;;10235343;29;20282;-88
2021/12/08 22:43:08;;;;;;;29.07;17.10;;;11.80;83.00;;;;;;10236941;29;20212;-88
2021/12/08 22:48:13;;;;;;;21.20;13.57;;;12.10;80.00;;;;;;10233759;29;20213;-89
2021/12/08 22:53:16;;;;;;;32.47;19.17;;;11.60;85.30;;;;;;10257437;29;20208;-88
2021/12/08 22:58:18;;;;;;;26.77;14.87;;;12.00;79.00;;;;;;10222999;28;20221;-88
2021/12/08 23:03:21;;;;;;;22.50;12.83;;;12.20;82.20;;;;;;10257928;29;20277;-88
2021/12/08 23:08:24;;;;;;;21.00;12.93;;;12.30;81.60;;;;;;10242629;29;20299;-88
2021/12/08 23:13:31;;;;;;;22.43;14.03;;;12.40;80.30;;;;;;10232027;29;20244;-88
2021/12/08 23:18:34;;;;;;;21.90;13.53;;;12.40;79.90;;;;;;10207573;29;20245;-88
2021/12/08 23:23:41;;;;;;;24.40;13.53;;;12.40;79.30;;;;;;10244155;28;20256;-88
2021/12/08 23:28:45;;;;;;;24.30;14.00;;;12.00;80.40;;;;;;10239148;28;20986;-89
2021/12/08 23:33:50;;;;;;;27.73;13.87;;;12.00;79.60;;;;;;10248241;29;20274;-88
2021/12/08 23:39:04;;;;;;;21.23;13.50;;;11.30;79.40;;;;;;10226791;28;20329;-88
2021/12/08 23:44:08;;;;;;;21.23;12.67;;;12.20;78.70;;;;;;10247622;29;20248;-88
2021/12/08 23:49:10;;;;;;;22.90;13.97;;;12.00;78.80;;;;;;10231644;29;20314;-88
2021/12/08 23:54:13;;;;;;;25.40;13.90;;;10.90;78.60;;;;;;10247120;29;20336;-88
2021/12/08 23:59:18;;;;;;;23.67;14.10;;;11.80;79.10;;;;;;10226048;28;20720;-89
